Time,TemperatureF,DewpointF,PressureIn,WindDirection,WindDirectionDegrees,WindSpeedMPH,WindSpeedGustMPH,Humidity,HourlyPrecipIn,Conditions,Clouds,dailyrainin,SoftwareType,DateUTC
2013-05-25 00:04:00,51.1,29.3,-100.00,North,-999,0.0,0.0,43,0.00,,,-99.99,FreeWX-Wi 1.01,2013-05-25 07:04:00,
2013-05-25 00:19:00,50.5,29.5,-100.00,North,-999,0.0,0.0,44,0.00,,,-99.99,FreeWX-Wi 1.01,2013-05-25 07:19:00,
2013-05-25 00:34:00,50.5,29.5,-100.00,North,-999,0.0,0.0,44,0.00,,,-99.99,FreeWX-Wi 1.01,2013-05-25 07:34:00,
2013-05-25 00:44:00,50.5,29.5,-100.00,North,-999,0.0,0.0,44,0.00,,,-99.99,FreeWX-Wi 1.01,2013-05-25 07:44:00,
2013-05-25 00:54:00,50.5,28.9,-100.00,North,-999,0.0,0.0,43,0.00,,,-99.99,FreeWX-Wi 1.01,2013-05-25 07:54:00,
2013-05-25 00:59:00,50.7,29.1,-100.00,North,-999,0.0,0.0,43,0.00,,,-99.99,FreeWX-Wi 1.01,2013-05-25 07:59:00,
2013-05-25 01:05:00,50.7,29.1,-100.00,North,-999,0.0,0.0,43,0.00,,,-99.99,FreeWX-Wi 1.01,2013-05-25 08:05:00,
2013-05-25 01:15:00,50.7,28.4,-100.00,North,-999,0.0,0.0,42,0.00,,,-99.99,FreeWX-Wi 1.01,2013-05-25 08:15:00,
2013-05-25 01:25:00,50.7,29.1,-100.00,North,-999,0.0,0.0,43,0.00,,,-99.99,FreeWX-Wi 1.01,2013-05-25 08:25:00,
2013-05-25 01:35:00,50.9,28.6,-100.00,North,-999,0.0,0.0,42,0.00,,,-99.99,FreeWX-Wi 1.01,2013-05-25 08:35:00,
2013-05-25 02:16:00,51.3,28.9,-100.00,North,-999,0.0,0.0,42,0.00,,,-99.99,FreeWX-Wi 1.01,2013-05-25 09:16:00,
2013-05-25 04:32:00,50.7,29.1,-100.00,North,-999,0.0,0.0,43,0.00,,,-99.99,FreeWX-Wi 1.01,2013-05-25 11:32:00,
2013-05-25 05:58:00,50.4,28.2,-100.00,North,-999,0.0,0.0,42,0.00,,,-99.99,FreeWX-Wi 1.01,2013-05-25 12:58:00,
2013-05-25 06:08:00,50.5,27.7,-100.00,North,-999,0.0,0.0,41,0.00,,,-99.99,FreeWX-Wi 1.01,2013-05-25 13:08:00,
2013-05-25 06:13:00,50.5,27.7,-100.00,North,-999,0.0,0.0,41,0.00,,,-99.99,FreeWX-Wi 1.01,2013-05-25 13:13:00,
2013-05-25 06:23:00,50.5,28.2,-100.00,North,-999,0.0,0.0,42,0.00,,,-99.99,FreeWX-Wi 1.01,2013-05-25 13:23:00,
2013-05-25 06:28:00,50.5,28.2,-100.00,North,-999,0.0,0.0,42,0.00,,,-99.99,FreeWX-Wi 1.01,2013-05-25 13:28:00,
2013-05-25 06:44:00,51.1,28.2,-100.00,North,-999,0.0,0.0,41,0.00,,,-99.99,FreeWX-Wi 1.01,2013-05-25 13:44:00,
2013-05-25 06:49:00,51.3,27.9,-100.00,North,-999,0.0,0.0,40,0.00,,,-99.99,FreeWX-Wi 1.01,2013-05-25 13:49:00,
2013-05-25 06:54:00,51.4,27.9,-100.00,North,-999,0.0,0.0,40,0.00,,,-99.99,FreeWX-Wi 1.01,2013-05-25 13:54:00,
2013-05-25 06:59:00,51.6,27.5,-100.00,North,-999,0.0,0.0,39,0.00,,,-99.99,FreeWX-Wi 1.01,2013-05-25 13:59:00,
2013-05-25 07:04:00,51.6,27.5,-100.00,North,-999,0.0,0.0,39,0.00,,,-99.99,FreeWX-Wi 1.01,2013-05-25 14:04:00,
2013-05-25 07:09:00,51.8,27.0,-100.00,North,-999,0.0,0.0,38,0.00,,,-99.99,FreeWX-Wi 1.01,2013-05-25 14:09:00,
2013-05-25 07:19:00,52.2,27.3,-100.00,North,-999,0.0,0.0,38,0.00,,,-99.99,FreeWX-Wi 1.01,2013-05-25 14:19:00,
2013-05-25 07:24:00,52.3,26.8,-100.00,North,-999,0.0,0.0,37,0.00,,,-99.99,FreeWX-Wi 1.01,2013-05-25 14:24:00,
2013-05-25 07:29:00,52.5,27.7,-100.00,North,-999,0.0,0.0,38,0.00,,,-99.99,FreeWX-Wi 1.01,2013-05-25 14:29:00,
2013-05-25 07:34:00,52.9,28.0,-100.00,North,-999,0.0,0.0,38,0.00,,,-99.99,FreeWX-Wi 1.01,2013-05-25 14:34:00,
2013-05-25 07:39:00,53.1,28.2,-100.00,North,-999,0.0,0.0,38,0.00,,,-99.99,FreeWX-Wi 1.01,2013-05-25 14:39:00,
2013-05-25 07:44:00,53.4,28.4,-100.00,North,-999,0.0,0.0,38,0.00,,,-99.99,FreeWX-Wi 1.01,2013-05-25 14:44:00,
2013-05-25 07:49:00,53.8,28.8,-100.00,North,-999,0.0,0.0,38,0.00,,,-99.99,FreeWX-Wi 1.01,2013-05-25 14:49:00,
2013-05-25 07:54:00,54.1,29.1,-100.00,North,-999,0.0,0.0,38,0.00,,,-99.99,FreeWX-Wi 1.01,2013-05-25 14:54:00,
2013-05-25 07:59:00,54.0,28.2,-100.00,North,-999,0.0,0.0,37,0.00,,,-99.99,FreeWX-Wi 1.01,2013-05-25 14:59:00,
2013-05-25 08:04:00,54.3,28.6,-100.00,North,-999,0.0,0.0,37,0.00,,,-99.99,FreeWX-Wi 1.01,2013-05-25 15:04:00,
2013-05-25 08:09:00,54.5,28.0,-100.00,North,-999,0.0,0.0,36,0.00,,,-99.99,FreeWX-Wi 1.01,2013-05-25 15:09:00,
2013-05-25 08:14:00,54.5,28.0,-100.00,North,-999,0.0,0.0,36,0.00,,,-99.99,FreeWX-Wi 1.01,2013-05-25 15:14:00,
2013-05-25 08:19:00,54.3,27.9,-100.00,North,-999,0.0,0.0,36,0.00,,,-99.99,FreeWX-Wi 1.01,2013-05-25 15:19:00,
2013-05-25 08:24:00,54.5,28.0,-100.00,North,-999,0.0,0.0,36,0.00,,,-99.99,FreeWX-Wi 1.01,2013-05-25 15:24:00,
2013-05-25 08:34:00,55.4,28.9,-100.00,North,-999,0.0,0.0,36,0.00,,,-99.99,FreeWX-Wi 1.01,2013-05-25 15:34:00,
2013-05-25 08:39:00,55.6,29.1,-100.00,North,-999,0.0,0.0,36,0.00,,,-99.99,FreeWX-Wi 1.01,2013-05-25 15:39:00,
2013-05-25 08:44:00,56.5,29.8,-100.00,North,-999,0.0,0.0,36,0.00,,,-99.99,FreeWX-Wi 1.01,2013-05-25 15:44:00,
2013-05-25 08:49:00,57.2,29.8,-100.00,North,-999,0.0,0.0,35,0.00,,,-99.99,FreeWX-Wi 1.01,2013-05-25 15:49:00,
2013-05-25 08:54:00,57.2,29.8,-100.00,North,-999,0.0,0.0,35,0.00,,,-99.99,FreeWX-Wi 1.01,2013-05-25 15:54:00,
2013-05-25 08:59:00,56.8,30.2,-100.00,North,-999,0.0,0.0,36,0.00,,,-99.99,FreeWX-Wi 1.01,2013-05-25 15:59:00,
2013-05-25 09:04:00,57.0,30.4,-100.00,North,-999,0.0,0.0,36,0.00,,,-99.99,FreeWX-Wi 1.01,2013-05-25 16:04:00,
2013-05-25 09:09:00,57.4,30.0,-100.00,North,-999,0.0,0.0,35,0.00,,,-99.99,FreeWX-Wi 1.01,2013-05-25 16:09:00,
2013-05-25 09:14:00,57.7,30.2,-100.00,North,-999,0.0,0.0,35,0.00,,,-99.99,FreeWX-Wi 1.01,2013-05-25 16:14:00,
2013-05-25 09:19:00,57.7,30.2,-100.00,North,-999,0.0,0.0,35,0.00,,,-99.99,FreeWX-Wi 1.01,2013-05-25 16:19:00,
2013-05-25 09:24:00,57.4,30.0,-100.00,North,-999,0.0,0.0,35,0.00,,,-99.99,FreeWX-Wi 1.01,2013-05-25 16:24:00,
2013-05-25 09:29:00,57.6,30.2,-100.00,North,-999,0.0,0.0,35,0.00,,,-99.99,FreeWX-Wi 1.01,2013-05-25 16:29:00,
2013-05-25 09:34:00,57.6,30.2,-100.00,North,-999,0.0,0.0,35,0.00,,,-99.99,FreeWX-Wi 1.01,2013-05-25 16:34:00,
2013-05-25 09:39:00,57.4,30.0,-100.00,North,-999,0.0,0.0,35,0.00,,,-99.99,FreeWX-Wi 1.01,2013-05-25 16:39:00,
2013-05-25 09:44:00,58.1,30.6,-100.00,North,-999,0.0,0.0,35,0.00,,,-99.99,FreeWX-Wi 1.01,2013-05-25 16:44:00,
2013-05-25 09:49:00,58.8,31.3,-100.00,North,-999,0.0,0.0,35,0.00,,,-99.99,FreeWX-Wi 1.01,2013-05-25 16:49:00,
2013-05-25 09:54:00,59.2,31.5,-100.00,North,-999,0.0,0.0,35,0.00,,,-99.99,FreeWX-Wi 1.01,2013-05-25 16:54:00,
2013-05-25 09:59:00,58.8,31.3,-100.00,North,-999,0.0,0.0,35,0.00,,,-99.99,FreeWX-Wi 1.01,2013-05-25 16:59:00,
2013-05-25 10:04:00,59.0,31.5,-100.00,North,-999,0.0,0.0,35,0.00,,,-99.99,FreeWX-Wi 1.01,2013-05-25 17:04:00,
2013-05-25 10:09:00,59.0,31.5,-100.00,North,-999,0.0,0.0,35,0.00,,,-99.99,FreeWX-Wi 1.01,2013-05-25 17:09:00,
2013-05-25 10:15:00,58.6,31.1,-100.00,North,-999,0.0,0.0,35,0.00,,,-99.99,FreeWX-Wi 1.01,2013-05-25 17:15:00,
2013-05-25 10:20:00,60.1,32.4,-100.00,North,-999,0.0,0.0,35,0.00,,,-99.99,FreeWX-Wi 1.01,2013-05-25 17:20:00,
2013-05-25 10:25:00,61.5,32.9,-100.00,North,-999,0.0,0.0,34,0.00,,,-99.99,FreeWX-Wi 1.01,2013-05-25 17:25:00,
2013-05-25 10:30:00,61.3,32.7,-100.00,North,-999,0.0,0.0,34,0.00,,,-99.99,FreeWX-Wi 1.01,2013-05-25 17:30:00,
2013-05-25 10:35:00,60.4,32.7,-100.00,North,-999,0.0,0.0,35,0.00,,,-99.99,FreeWX-Wi 1.01,2013-05-25 17:35:00,
2013-05-25 10:40:00,60.6,32.9,-100.00,North,-999,0.0,0.0,35,0.00,,,-99.99,FreeWX-Wi 1.01,2013-05-25 17:40:00,
2013-05-25 10:45:00,60.6,32.9,-100.00,North,-999,0.0,0.0,35,0.00,,,-99.99,FreeWX-Wi 1.01,2013-05-25 17:45:00,
2013-05-25 10:50:00,60.8,32.2,-100.00,North,-999,0.0,0.0,34,0.00,,,-99.99,FreeWX-Wi 1.01,2013-05-25 17:50:00,
2013-05-25 10:55:00,61.0,32.4,-100.00,North,-999,0.0,4.9,34,0.00,,,-99.99,FreeWX-Wi 1.01,2013-05-25 17:55:00,
2013-05-25 11:00:00,60.8,32.2,-100.00,North,-999,0.0,0.0,34,0.00,,,-99.99,FreeWX-Wi 1.01,2013-05-25 18:00:00,
2013-05-25 11:05:00,61.0,32.4,-100.00,North,-999,0.0,0.0,34,0.00,,,-99.99,FreeWX-Wi 1.01,2013-05-25 18:05:00,
2013-05-25 11:10:00,60.8,32.2,-100.00,North,-999,0.0,0.0,34,0.00,,,-99.99,FreeWX-Wi 1.01,2013-05-25 18:10:00,
2013-05-25 11:15:00,61.0,32.4,-100.00,North,-999,0.0,0.0,34,0.00,,,-99.99,FreeWX-Wi 1.01,2013-05-25 18:15:00,
2013-05-25 11:21:00,61.7,33.1,-100.00,North,-999,0.0,0.0,34,0.00,,,-99.99,FreeWX-Wi 1.01,2013-05-25 18:21:00,
2013-05-25 11:31:00,61.2,32.5,-100.00,North,-999,0.0,0.0,34,0.00,,,-99.99,FreeWX-Wi 1.01,2013-05-25 18:31:00,
2013-05-25 11:36:00,60.4,32.7,-100.00,North,-999,0.0,0.0,35,0.00,,,-99.99,FreeWX-Wi 1.01,2013-05-25 18:36:00,
2013-05-25 11:41:00,61.9,33.3,-100.00,North,-999,0.0,0.0,34,0.00,,,-99.99,FreeWX-Wi 1.01,2013-05-25 18:41:00,
2013-05-25 11:46:00,62.6,33.8,-100.00,North,-999,0.0,0.0,34,0.00,,,-99.99,FreeWX-Wi 1.01,2013-05-25 18:46:00,
2013-05-25 11:51:00,62.1,33.4,-100.00,North,-999,0.0,0.0,34,0.00,,,-99.99,FreeWX-Wi 1.01,2013-05-25 18:51:00,
2013-05-25 11:56:00,61.9,33.3,-100.00,North,-999,0.0,0.0,34,0.00,,,-99.99,FreeWX-Wi 1.01,2013-05-25 18:56:00,
2013-05-25 12:01:00,61.3,32.7,-100.00,North,-999,0.0,0.0,34,0.00,,,-99.99,FreeWX-Wi 1.01,2013-05-25 19:01:00,
2013-05-25 12:06:00,61.7,33.1,-100.00,North,-999,0.0,0.0,34,0.00,,,-99.99,FreeWX-Wi 1.01,2013-05-25 19:06:00,
2013-05-25 12:11:00,64.2,35.2,-100.00,North,-999,0.0,0.0,34,0.00,,,-99.99,FreeWX-Wi 1.01,2013-05-25 19:11:00,
2013-05-25 12:16:00,66.4,36.3,-100.00,North,-999,0.0,0.0,33,0.00,,,-99.99,FreeWX-Wi 1.01,2013-05-25 19:16:00,
2013-05-25 12:21:00,65.7,35.8,-100.00,North,-999,0.0,0.0,33,0.00,,,-99.99,FreeWX-Wi 1.01,2013-05-25 19:21:00,
2013-05-25 12:26:00,65.3,35.4,-100.00,North,-999,0.0,0.0,33,0.00,,,-99.99,FreeWX-Wi 1.01,2013-05-25 19:26:00,
2013-05-25 12:31:00,65.7,35.8,-100.00,North,-999,0.0,0.0,33,0.00,,,-99.99,FreeWX-Wi 1.01,2013-05-25 19:31:00,
2013-05-25 12:36:00,66.9,36.9,-100.00,North,-999,0.0,0.0,33,0.00,,,-99.99,FreeWX-Wi 1.01,2013-05-25 19:36:00,
2013-05-25 12:41:00,68.2,37.9,-100.00,North,-999,0.0,0.0,33,0.00,,,-99.99,FreeWX-Wi 1.01,2013-05-25 19:41:00,
2013-05-25 12:46:00,69.8,38.7,-100.00,North,-999,0.0,0.0,32,0.00,,,-99.99,FreeWX-Wi 1.01,2013-05-25 19:46:00,
2013-05-25 12:51:00,73.4,41.0,-100.00,North,-999,0.0,0.0,31,0.00,,,-99.99,FreeWX-Wi 1.01,2013-05-25 19:51:00,
2013-05-25 12:56:00,72.7,41.2,-100.00,North,-999,0.0,0.0,32,0.00,,,-99.99,FreeWX-Wi 1.01,2013-05-25 19:56:00,
2013-05-25 13:01:00,70.5,39.2,-100.00,North,-999,0.0,0.0,32,0.00,,,-99.99,FreeWX-Wi 1.01,2013-05-25 20:01:00,
2013-05-25 13:06:00,70.0,38.8,-100.00,North,-999,0.0,0.0,32,0.00,,,-99.99,FreeWX-Wi 1.01,2013-05-25 20:06:00,
2013-05-25 13:11:00,72.0,40.5,-100.00,North,-999,0.0,0.0,32,0.00,,,-99.99,FreeWX-Wi 1.01,2013-05-25 20:11:00,
2013-05-25 13:16:00,73.8,41.2,-100.00,North,-999,0.0,0.0,31,0.00,,,-99.99,FreeWX-Wi 1.01,2013-05-25 20:16:00,
2013-05-25 13:21:00,71.4,40.1,-100.00,North,-999,0.0,0.0,32,0.00,,,-99.99,FreeWX-Wi 1.01,2013-05-25 20:21:00,
2013-05-25 13:26:00,70.2,38.8,-100.00,North,-999,0.0,0.0,32,0.00,,,-99.99,FreeWX-Wi 1.01,2013-05-25 20:26:00,
2013-05-25 13:31:00,71.1,39.7,-100.00,North,-999,0.0,0.0,32,0.00,,,-99.99,FreeWX-Wi 1.01,2013-05-25 20:31:00,
2013-05-25 13:36:00,71.4,40.1,-100.00,North,-999,0.0,0.0,32,0.00,,,-99.99,FreeWX-Wi 1.01,2013-05-25 20:36:00,
2013-05-25 13:41:00,71.1,39.7,-100.00,North,-999,0.0,0.0,32,0.00,,,-99.99,FreeWX-Wi 1.01,2013-05-25 20:41:00,
2013-05-25 13:46:00,74.1,41.5,-100.00,North,-999,0.0,0.0,31,0.00,,,-99.99,FreeWX-Wi 1.01,2013-05-25 20:46:00,
2013-05-25 13:51:00,80.2,46.0,-100.00,North,-999,0.0,0.0,30,0.00,,,-99.99,FreeWX-Wi 1.01,2013-05-25 20:51:00,
2013-05-25 13:56:00,74.8,42.1,-100.00,North,-999,0.0,0.0,31,0.00,,,-99.99,FreeWX-Wi 1.01,2013-05-25 20:56:00,
2013-05-25 14:01:00,71.1,39.7,-100.00,North,-999,0.0,0.0,32,0.00,,,-99.99,FreeWX-Wi 1.01,2013-05-25 21:01:00,
2013-05-25 14:06:00,68.9,38.7,-100.00,North,-999,0.0,0.0,33,0.00,,,-99.99,FreeWX-Wi 1.01,2013-05-25 21:06:00,
2013-05-25 14:11:00,68.9,38.7,-100.00,North,-999,0.0,0.0,33,0.00,,,-99.99,FreeWX-Wi 1.01,2013-05-25 21:11:00,
2013-05-25 14:16:00,69.8,38.7,-100.00,North,-999,0.0,0.0,32,0.00,,,-99.99,FreeWX-Wi 1.01,2013-05-25 21:16:00,
2013-05-25 14:21:00,69.6,39.2,-100.00,North,-999,0.0,0.0,33,0.00,,,-99.99,FreeWX-Wi 1.01,2013-05-25 21:21:00,
2013-05-25 14:26:00,69.6,39.2,-100.00,North,-999,0.0,0.0,33,0.00,,,-99.99,FreeWX-Wi 1.01,2013-05-25 21:26:00,
2013-05-25 14:31:00,69.1,38.8,-100.00,North,-999,0.0,0.0,33,0.00,,,-99.99,FreeWX-Wi 1.01,2013-05-25 21:31:00,
2013-05-25 14:36:00,69.8,38.7,-100.00,North,-999,0.0,0.0,32,0.00,,,-99.99,FreeWX-Wi 1.01,2013-05-25 21:36:00,
2013-05-25 14:41:00,76.1,43.3,-100.00,North,-999,0.0,0.0,31,0.00,,,-99.99,FreeWX-Wi 1.01,2013-05-25 21:41:00,
2013-05-25 14:46:00,81.0,46.6,-100.00,North,-999,0.0,0.0,30,0.00,,,-99.99,FreeWX-Wi 1.01,2013-05-25 21:46:00,
2013-05-25 14:51:00,77.2,44.2,-100.00,North,-999,0.0,0.0,31,0.00,,,-99.99,FreeWX-Wi 1.01,2013-05-25 21:51:00,
2013-05-25 14:57:00,73.0,41.4,-100.00,North,-999,0.0,0.0,32,0.00,,,-99.99,FreeWX-Wi 1.01,2013-05-25 21:57:00,
2013-05-25 15:02:00,72.1,40.6,-100.00,North,-999,0.0,0.0,32,0.00,,,-99.99,FreeWX-Wi 1.01,2013-05-25 22:02:00,
2013-05-25 15:07:00,70.5,39.2,-100.00,North,-999,0.0,0.0,32,0.00,,,-99.99,FreeWX-Wi 1.01,2013-05-25 22:07:00,
2013-05-25 15:12:00,70.5,39.2,-100.00,North,-999,0.0,0.0,32,0.00,,,-99.99,FreeWX-Wi 1.01,2013-05-25 22:12:00,
2013-05-25 15:17:00,70.2,38.8,-100.00,North,-999,0.0,0.0,32,0.00,,,-99.99,FreeWX-Wi 1.01,2013-05-25 22:17:00,
2013-05-25 15:22:00,69.3,38.8,-100.00,North,-999,0.0,0.0,33,0.00,,,-99.99,FreeWX-Wi 1.01,2013-05-25 22:22:00,
2013-05-25 15:27:00,67.3,37.2,-100.00,North,-999,0.0,0.0,33,0.00,,,-99.99,FreeWX-Wi 1.01,2013-05-25 22:27:00,
2013-05-25 15:32:00,66.2,36.3,-100.00,North,-999,0.0,0.0,33,0.00,,,-99.99,FreeWX-Wi 1.01,2013-05-25 22:32:00,
2013-05-25 15:37:00,69.8,38.7,-100.00,North,-999,0.0,0.0,32,0.00,,,-99.99,FreeWX-Wi 1.01,2013-05-25 22:37:00,
2013-05-25 15:42:00,70.7,39.4,-100.00,North,-999,0.0,0.0,32,0.00,,,-99.99,FreeWX-Wi 1.01,2013-05-25 22:42:00,
2013-05-25 15:47:00,70.0,38.8,-100.00,North,-999,0.0,0.0,32,0.00,,,-99.99,FreeWX-Wi 1.01,2013-05-25 22:47:00,
2013-05-25 15:52:00,69.8,38.7,-100.00,North,-999,0.0,0.0,32,0.00,,,-99.99,FreeWX-Wi 1.01,2013-05-25 22:52:00,
2013-05-25 15:57:00,68.4,38.1,-100.00,North,-999,0.0,0.0,33,0.00,,,-99.99,FreeWX-Wi 1.01,2013-05-25 22:57:00,
2013-05-25 16:02:00,67.3,37.2,-100.00,North,-999,0.0,0.0,33,0.00,,,-99.99,FreeWX-Wi 1.01,2013-05-25 23:02:00,
2013-05-25 16:08:00,66.4,36.3,-100.00,North,-999,0.0,0.0,33,0.00,,,-99.99,FreeWX-Wi 1.01,2013-05-25 23:08:00,
2013-05-25 16:13:00,66.2,36.3,-100.00,North,-999,0.0,0.0,33,0.00,,,-99.99,FreeWX-Wi 1.01,2013-05-25 23:13:00,
2013-05-25 16:18:00,67.5,37.4,-100.00,North,-999,0.0,0.0,33,0.00,,,-99.99,FreeWX-Wi 1.01,2013-05-25 23:18:00,
2013-05-25 16:23:00,69.6,39.2,-100.00,North,-999,0.0,0.0,33,0.00,,,-99.99,FreeWX-Wi 1.01,2013-05-25 23:23:00,
2013-05-25 16:28:00,68.2,37.9,-100.00,North,-999,0.0,0.0,33,0.00,,,-99.99,FreeWX-Wi 1.01,2013-05-25 23:28:00,
2013-05-25 16:33:00,66.9,36.9,-100.00,North,-999,0.0,0.0,33,0.00,,,-99.99,FreeWX-Wi 1.01,2013-05-25 23:33:00,
2013-05-25 16:38:00,65.8,36.0,-100.00,North,-999,0.0,0.0,33,0.00,,,-99.99,FreeWX-Wi 1.01,2013-05-25 23:38:00,
2013-05-25 16:43:00,65.1,35.2,-100.00,North,-999,0.0,0.0,33,0.00,,,-99.99,FreeWX-Wi 1.01,2013-05-25 23:43:00,
2013-05-25 16:48:00,65.1,35.2,-100.00,North,-999,0.0,0.0,33,0.00,,,-99.99,FreeWX-Wi 1.01,2013-05-25 23:48:00,
2013-05-25 16:53:00,65.5,35.6,-100.00,North,-999,0.0,0.0,33,0.00,,,-99.99,FreeWX-Wi 1.01,2013-05-25 23:53:00,
2013-05-25 16:58:00,66.0,36.1,-100.00,North,-999,0.0,0.0,33,0.00,,,-99.99,FreeWX-Wi 1.01,2013-05-25 23:58:00,
2013-05-25 17:03:00,66.2,36.3,-100.00,North,-999,0.0,0.0,33,0.00,,,-99.99,FreeWX-Wi 1.01,2013-05-26 00:03:00,
2013-05-25 17:13:00,66.0,36.1,-100.00,North,-999,0.0,0.0,33,0.00,,,-99.99,FreeWX-Wi 1.01,2013-05-26 00:13:00,
2013-05-25 17:18:00,65.8,36.0,-100.00,North,-999,0.0,0.0,33,0.00,,,-99.99,FreeWX-Wi 1.01,2013-05-26 00:18:00,
2013-05-25 17:23:00,65.7,35.8,-100.00,North,-999,0.0,0.0,33,0.00,,,-99.99,FreeWX-Wi 1.01,2013-05-26 00:23:00,
2013-05-25 17:28:00,65.3,35.4,-100.00,North,-999,0.0,0.0,33,0.00,,,-99.99,FreeWX-Wi 1.01,2013-05-26 00:28:00,
2013-05-25 17:33:00,65.1,35.2,-100.00,North,-999,0.0,0.0,33,0.00,,,-99.99,FreeWX-Wi 1.01,2013-05-26 00:33:00,
2013-05-25 17:38:00,65.3,35.4,-100.00,North,-999,0.0,0.0,33,0.00,,,-99.99,FreeWX-Wi 1.01,2013-05-26 00:38:00,
2013-05-25 17:43:00,66.4,36.3,-100.00,North,-999,0.0,0.0,33,0.00,,,-99.99,FreeWX-Wi 1.01,2013-05-26 00:43:00,
2013-05-25 17:48:00,66.0,36.1,-100.00,North,-999,0.0,0.0,33,0.00,,,-99.99,FreeWX-Wi 1.01,2013-05-26 00:48:00,
2013-05-25 17:53:00,64.9,35.1,-100.00,North,-999,0.0,0.0,33,0.00,,,-99.99,FreeWX-Wi 1.01,2013-05-26 00:53:00,
2013-05-25 17:58:00,64.0,35.1,-100.00,North,-999,0.0,0.0,34,0.00,,,-99.99,FreeWX-Wi 1.01,2013-05-26 00:58:00,
2013-05-25 18:04:00,63.9,34.9,-100.00,North,-999,0.0,0.0,34,0.00,,,-99.99,FreeWX-Wi 1.01,2013-05-26 01:04:00,
2013-05-25 18:09:00,64.0,35.1,-100.00,North,-999,0.0,0.0,34,0.00,,,-99.99,FreeWX-Wi 1.01,2013-05-26 01:09:00,
2013-05-25 18:14:00,64.8,35.1,-100.00,North,-999,0.0,0.0,33,0.00,,,-99.99,FreeWX-Wi 1.01,2013-05-26 01:14:00,
2013-05-25 18:19:00,65.5,35.6,-100.00,North,-999,0.0,0.0,33,0.00,,,-99.99,FreeWX-Wi 1.01,2013-05-26 01:19:00,
2013-05-25 18:24:00,64.9,35.1,-100.00,North,-999,0.0,0.0,33,0.00,,,-99.99,FreeWX-Wi 1.01,2013-05-26 01:24:00,
2013-05-25 18:29:00,64.0,35.1,-100.00,North,-999,0.0,0.0,34,0.00,,,-99.99,FreeWX-Wi 1.01,2013-05-26 01:29:00,
2013-05-25 18:34:00,63.5,34.7,-100.00,North,-999,0.0,0.0,34,0.00,,,-99.99,FreeWX-Wi 1.01,2013-05-26 01:34:00,
2013-05-25 18:39:00,62.4,33.6,-100.00,North,-999,0.0,0.0,34,0.00,,,-99.99,FreeWX-Wi 1.01,2013-05-26 01:39:00,
2013-05-25 18:44:00,62.1,33.4,-100.00,North,-999,0.0,0.0,34,0.00,,,-99.99,FreeWX-Wi 1.01,2013-05-26 01:44:00,
2013-05-25 18:49:00,61.9,33.3,-100.00,North,-999,0.0,0.0,34,0.00,,,-99.99,FreeWX-Wi 1.01,2013-05-26 01:49:00,
2013-05-25 18:54:00,61.7,33.1,-100.00,North,-999,0.0,0.0,34,0.00,,,-99.99,FreeWX-Wi 1.01,2013-05-26 01:54:00,
2013-05-25 18:59:00,61.3,32.7,-100.00,North,-999,0.0,0.0,34,0.00,,,-99.99,FreeWX-Wi 1.01,2013-05-26 01:59:00,
2013-05-25 19:04:00,61.0,32.4,-100.00,North,-999,0.0,0.0,34,0.00,,,-99.99,FreeWX-Wi 1.01,2013-05-26 02:04:00,
2013-05-25 19:09:00,60.6,32.9,-100.00,North,-999,0.0,0.0,35,0.00,,,-99.99,FreeWX-Wi 1.01,2013-05-26 02:09:00,
2013-05-25 19:14:00,60.3,32.5,-100.00,North,-999,0.0,0.0,35,0.00,,,-99.99,FreeWX-Wi 1.01,2013-05-26 02:14:00,
2013-05-25 19:19:00,60.3,32.5,-100.00,North,-999,0.0,0.0,35,0.00,,,-99.99,FreeWX-Wi 1.01,2013-05-26 02:19:00,
2013-05-25 19:24:00,60.3,32.5,-100.00,North,-999,0.0,0.0,35,0.00,,,-99.99,FreeWX-Wi 1.01,2013-05-26 02:24:00,
2013-05-25 19:29:00,60.4,32.7,-100.00,North,-999,0.0,0.0,35,0.00,,,-99.99,FreeWX-Wi 1.01,2013-05-26 02:29:00,
2013-05-25 19:34:00,60.6,32.9,-100.00,North,-999,0.0,0.0,35,0.00,,,-99.99,FreeWX-Wi 1.01,2013-05-26 02:34:00,
2013-05-25 19:39:00,60.6,32.9,-100.00,North,-999,0.0,0.0,35,0.00,,,-99.99,FreeWX-Wi 1.01,2013-05-26 02:39:00,
2013-05-25 19:44:00,60.6,32.9,-100.00,North,-999,0.0,0.0,35,0.00,,,-99.99,FreeWX-Wi 1.01,2013-05-26 02:44:00,
2013-05-25 19:49:00,60.4,32.7,-100.00,North,-999,0.0,0.0,35,0.00,,,-99.99,FreeWX-Wi 1.01,2013-05-26 02:49:00,
2013-05-25 19:54:00,60.3,32.5,-100.00,North,-999,0.0,0.0,35,0.00,,,-99.99,FreeWX-Wi 1.01,2013-05-26 02:54:00,
2013-05-25 19:59:00,59.7,32.0,-100.00,North,-999,0.0,0.0,35,0.00,,,-99.99,FreeWX-Wi 1.01,2013-05-26 02:59:00,
2013-05-25 20:05:00,59.4,31.6,-100.00,North,-999,0.0,0.0,35,0.00,,,-99.99,FreeWX-Wi 1.01,2013-05-26 03:05:00,
2013-05-25 20:15:00,58.5,30.9,-100.00,North,-999,0.0,0.0,35,0.00,,,-99.99,FreeWX-Wi 1.01,2013-05-26 03:15:00,
2013-05-25 20:25:00,57.6,30.2,-100.00,North,-999,0.0,0.0,35,0.00,,,-99.99,FreeWX-Wi 1.01,2013-05-26 03:25:00,
2013-05-25 22:15:00,53.6,28.6,-100.00,North,-999,0.0,0.0,38,0.00,,,-99.99,FreeWX-Wi 1.01,2013-05-26 05:15:00,
2013-05-25 22:26:00,53.8,29.5,-100.00,North,-999,0.0,0.0,39,0.00,,,-99.99,FreeWX-Wi 1.01,2013-05-26 05:26:00,
2013-05-25 22:51:00,53.4,29.7,-100.00,North,-999,0.0,0.0,40,0.00,,,-99.99,FreeWX-Wi 1.01,2013-05-26 05:51:00,
2013-05-25 23:01:00,52.7,29.7,-100.00,North,-999,0.0,0.0,41,0.00,,,-99.99,FreeWX-Wi 1.01,2013-05-26 06:01:00,
2013-05-25 23:11:00,52.3,29.3,-100.00,North,-999,0.0,0.0,41,0.00,,,-99.99,FreeWX-Wi 1.01,2013-05-26 06:11:00,
2013-05-25 23:21:00,52.3,29.3,-100.00,North,-999,0.0,0.0,41,0.00,,,-99.99,FreeWX-Wi 1.01,2013-05-26 06:21:00,
2013-05-25 23:26:00,52.3,29.3,-100.00,North,-999,0.0,0.0,41,0.00,,,-99.99,FreeWX-Wi 1.01,2013-05-26 06:26:00,
2013-05-25 23:31:00,52.5,29.5,-100.00,North,-999,0.0,0.0,41,0.00,,,-99.99,FreeWX-Wi 1.01,2013-05-26 06:31:00,
2013-05-25 23:36:00,52.3,29.3,-100.00,North,-999,0.0,0.0,41,0.00,,,-99.99,FreeWX-Wi 1.01,2013-05-26 06:36:00,
2013-05-25 23:41:00,52.3,29.3,-100.00,North,-999,0.0,0.0,41,0.00,,,-99.99,FreeWX-Wi 1.01,2013-05-26 06:41:00,
2013-05-25 23:46:00,52.3,29.3,-100.00,North,-999,0.0,0.0,41,0.00,,,-99.99,FreeWX-Wi 1.01,2013-05-26 06:46:00,
2013-05-25 23:51:00,51.8,28.2,-100.00,North,-999,0.0,0.0,40,0.00,,,-99.99,FreeWX-Wi 1.01,2013-05-26 06:51:00,
2013-05-25 23:56:00,51.4,29.1,-100.00,North,-999,0.0,0.0,42,0.00,,,-99.99,FreeWX-Wi 1.01,2013-05-26 06:56:00,